From 05/02/2022 00:00 to 05/19/2022 00:00

Date STAGE [FT] OBSERVED DAM ELEVATION FLOW [CFS] PRECIPITATION INCREMENT [IN] PRECIPITATION TOTAL [IN] AIR TEMPERATURE [DEGF]
05/16/2022 11:00 -- 407.45 -- -- -- --
05/16/2022 10:00 -- 407.48 -- -- -- --
05/16/2022 09:00 3.26 407.48 514.3 -- -- --
05/16/2022 08:00 3.25 407.47 510.9 -- -- --
05/16/2022 07:00 3.24 407.47 507.5 0.00 -- --
05/16/2022 06:00 3.23 407.46 504.1 0.00 -- --
05/16/2022 05:00 3.22 407.45 500.7 0.00 -- --
05/16/2022 04:00 3.21 407.45 497.3 0.00 -- --
05/16/2022 03:00 3.20 407.45 494.0 0.00 -- --
05/16/2022 02:00 3.19 407.44 490.8 0.00 -- --
05/16/2022 01:00 3.18 407.43 487.5 0.00 -- --
05/16/2022 00:00 3.17 407.43 484.3 0.00 -- --
05/15/2022 23:00 3.15 407.42 477.9 0.00 -- --
05/15/2022 22:00 3.15 407.42 477.9 0.03 -- --
05/15/2022 21:00 3.15 407.41 477.9 0.02 -- --
05/15/2022 20:00 3.14 407.42 474.7 0.00 -- --
05/15/2022 19:00 3.13 407.41 471.5 0.00 -- --
05/15/2022 18:00 3.11 407.41 465.2 0.00 -- --
05/15/2022 17:00 3.11 407.38 465.2 0.01 -- --
05/15/2022 16:00 3.09 407.37 458.7 0.01 -- --
05/15/2022 15:00 3.09 407.37 458.7 0.00 -- --
05/15/2022 14:00 3.11 407.38 465.2 0.00 -- --
05/15/2022 13:00 3.10 407.40 462.0 0.00 -- --
05/15/2022 12:00 3.10 407.38 462.0 0.12 -- --
05/15/2022 11:00 3.10 407.38 462.0 0.24 -- --
05/15/2022 10:00 3.09 407.37 458.7 0.00 -- --
05/15/2022 09:00 3.09 407.38 458.7 0.00 -- --
05/15/2022 08:00 3.09 407.37 458.7 0.00 -- --
05/15/2022 07:00 3.08 407.37 455.5 0.01 -- --
05/15/2022 06:00 3.07 407.36 452.3 0.00 -- --
05/15/2022 05:00 3.07 407.36 452.3 0.01 -- --
05/15/2022 04:00 3.07 407.36 452.3 0.00 -- --
05/15/2022 03:00 3.07 407.36 452.3 0.01 -- --
05/15/2022 02:00 3.06 407.36 449.1 0.00 -- --
05/15/2022 01:00 3.05 407.36 445.8 0.00 -- --
05/15/2022 00:00 3.05 407.36 445.8 0.00 0.46 --
05/14/2022 23:00 3.05 407.36 445.8 0.00 -- --
05/14/2022 22:00 3.03 407.36 439.5 0.00 -- --
05/14/2022 21:00 3.02 407.35 436.3 0.00 -- --
05/14/2022 20:00 2.98 407.35 423.3 0.00 -- --
05/14/2022 19:00 2.97 407.33 419.9 0.31 -- --
05/14/2022 18:00 2.97 407.34 419.9 0.01 -- --
05/14/2022 17:00 2.97 407.33 419.9 0.00 -- --
05/14/2022 16:00 2.97 407.33 419.9 0.00 -- --
05/14/2022 15:00 2.98 407.33 423.3 0.00 -- --
05/14/2022 14:00 2.99 407.32 426.6 0.00 -- --
05/14/2022 13:00 2.99 407.34 426.6 0.00 -- --
05/14/2022 12:00 3.00 407.33 430.0 0.00 -- --
05/14/2022 11:00 3.01 407.33 433.1 0.00 -- --
05/14/2022 10:00 3.01 407.33 433.1 0.00 -- --
05/14/2022 09:00 3.01 407.33 433.1 0.00 -- --
05/14/2022 08:00 3.01 407.32 433.1 0.00 -- --
05/14/2022 07:00 3.00 407.31 430.0 0.00 -- --
05/14/2022 06:00 3.00 407.32 430.0 0.00 -- --
05/14/2022 05:00 2.99 407.32 426.6 0.00 -- --
05/14/2022 04:00 2.99 407.32 426.6 0.00 -- --
05/14/2022 03:00 2.98 407.32 423.3 0.00 -- --
05/14/2022 02:00 2.98 407.31 423.3 0.00 -- --
05/14/2022 01:00 2.98 407.31 423.3 0.00 -- --
05/14/2022 00:00 2.98 407.32 423.3 0.00 0.32 --
05/13/2022 23:00 2.98 407.32 423.3 0.00 -- --
05/13/2022 22:00 2.99 407.33 426.6 0.00 -- --
05/13/2022 21:00 2.99 407.34 426.6 0.00 -- --
05/13/2022 20:00 2.99 407.33 426.6 0.00 -- --
05/13/2022 19:00 2.99 407.34 426.6 0.00 -- --
05/13/2022 18:00 3.00 407.34 430.0 0.00 -- --
05/13/2022 17:00 3.01 407.34 433.1 0.00 -- --
05/13/2022 16:00 3.01 407.35 433.1 0.00 -- --
05/13/2022 15:00 3.01 407.34 433.1 0.00 -- --
05/13/2022 14:00 3.01 407.33 433.1 0.00 -- --
05/13/2022 13:00 3.01 407.33 433.1 0.00 -- --
05/13/2022 12:00 3.02 407.32 436.3 0.00 -- --
05/13/2022 11:00 3.03 407.33 439.5 0.00 -- --
05/13/2022 10:00 3.03 407.32 439.5 0.00 -- --
05/13/2022 09:00 3.03 407.32 439.5 0.00 -- --
05/13/2022 08:00 3.03 407.32 439.5 0.00 -- --
05/13/2022 07:00 3.03 407.31 439.5 0.00 -- --
05/13/2022 06:00 3.02 407.31 436.3 0.00 -- --
05/13/2022 05:00 3.01 407.32 433.1 0.00 -- --
05/13/2022 04:00 3.01 407.31 433.1 0.00 -- --
05/13/2022 03:00 3.01 407.31 433.1 0.00 -- --
05/13/2022 02:00 3.00 407.32 430.0 0.00 -- --
05/13/2022 01:00 2.99 407.31 426.6 0.00 -- --
05/13/2022 00:00 2.99 407.32 426.6 0.00 0.00 --
05/12/2022 23:00 2.98 407.32 423.3 0.00 -- --
05/12/2022 22:00 2.97 407.32 419.9 0.00 -- --
05/12/2022 21:00 2.97 407.32 419.9 0.00 -- --
05/12/2022 20:00 2.95 407.31 413.3 0.00 -- --
05/12/2022 19:00 2.95 407.31 413.3 0.00 -- --
05/12/2022 18:00 2.95 407.30 413.3 0.00 -- --
05/12/2022 17:00 2.96 407.30 416.6 0.00 -- --
05/12/2022 16:00 2.96 407.30 416.6 0.00 -- --
05/12/2022 15:00 2.98 407.31 423.3 0.00 -- --
05/12/2022 14:00 3.00 407.31 430.0 0.00 -- --
05/12/2022 13:00 3.01 407.32 433.1 0.00 -- --
05/12/2022 12:00 3.03 407.32 439.5 0.00 -- --
05/12/2022 11:00 3.05 407.31 445.8 0.00 -- --
05/12/2022 10:00 3.05 407.32 445.8 0.00 -- --
05/12/2022 09:00 3.05 407.32 445.8 0.00 -- --
05/12/2022 08:00 3.05 407.31 445.8 0.00 -- --
05/12/2022 07:00 3.04 407.31 442.7 0.00 -- --
05/12/2022 06:00 3.03 407.31 439.5 0.00 -- --
05/12/2022 05:00 3.02 407.31 436.3 0.00 -- --
05/12/2022 04:00 3.02 407.31 436.3 0.00 -- --
05/12/2022 03:00 3.01 407.31 433.1 0.00 -- --
05/12/2022 02:00 3.01 407.31 433.1 0.00 -- --
05/12/2022 01:00 3.00 407.31 430.0 0.00 -- --
05/12/2022 00:00 2.99 407.31 426.6 0.00 0.00 --
05/11/2022 23:00 2.99 407.31 426.6 0.00 -- --
05/11/2022 22:00 2.98 407.31 423.3 0.00 -- --
05/11/2022 21:00 2.97 407.31 419.9 0.00 -- --
05/11/2022 20:00 2.97 407.30 419.9 0.00 -- --
05/11/2022 19:00 2.98 407.30 423.3 0.00 -- --
05/11/2022 18:00 2.98 407.31 423.3 0.00 -- --
05/11/2022 17:00 2.98 407.31 423.3 0.00 -- --
05/11/2022 16:00 2.98 407.30 423.3 0.00 -- --
05/11/2022 15:00 2.99 407.31 426.6 0.00 -- --
05/11/2022 14:00 2.99 407.29 426.6 0.00 -- --
05/11/2022 13:00 3.01 407.30 433.1 0.00 -- --
05/11/2022 12:00 3.02 407.29 436.3 0.00 -- --
05/11/2022 11:00 3.04 407.30 442.7 0.00 -- --
05/11/2022 10:00 3.05 407.31 445.8 0.00 -- --
05/11/2022 09:00 3.05 407.30 445.8 0.00 -- --
05/11/2022 08:00 3.04 407.30 442.7 0.00 -- --
05/11/2022 07:00 3.03 407.29 439.5 0.00 -- --
05/11/2022 06:00 3.03 407.30 439.5 0.00 -- --
05/11/2022 05:00 3.02 407.30 436.3 0.00 -- --
05/11/2022 04:00 3.01 407.29 433.1 0.00 -- --
05/11/2022 03:00 3.00 407.29 430.0 0.00 -- --
05/11/2022 02:00 3.00 407.29 430.0 0.00 -- --
05/11/2022 01:00 2.99 407.29 426.6 0.00 -- --
05/11/2022 00:00 2.99 407.29 426.6 0.00 0.00 --
05/10/2022 23:00 2.98 407.29 423.3 0.00 -- --
05/10/2022 22:00 2.96 407.29 416.6 0.00 -- --
05/10/2022 21:00 2.95 407.28 413.3 0.00 -- --
05/10/2022 20:00 2.94 407.28 410.0 0.00 -- --
05/10/2022 19:00 2.94 407.29 410.0 0.00 -- --
05/10/2022 18:00 2.93 407.28 406.7 0.00 -- --
05/10/2022 17:00 2.93 407.27 406.7 0.00 -- --
05/10/2022 16:00 2.93 407.27 406.7 0.00 -- --
05/10/2022 15:00 2.94 407.26 410.0 0.00 -- --
05/10/2022 14:00 2.95 407.27 413.3 0.00 -- --
05/10/2022 13:00 2.96 407.27 416.6 0.00 -- --
05/10/2022 12:00 2.97 407.27 419.9 0.00 -- --
05/10/2022 11:00 2.99 407.27 426.6 0.00 -- --
05/10/2022 10:00 3.01 407.28 433.1 0.00 -- --
05/10/2022 09:00 3.01 407.27 433.1 0.00 -- --
05/10/2022 08:00 3.01 407.27 433.1 0.00 -- --
05/10/2022 07:00 3.00 407.27 430.0 0.00 -- --
05/10/2022 06:00 2.99 407.27 426.6 0.00 -- --
05/10/2022 05:00 2.98 407.27 423.3 0.00 -- --
05/10/2022 04:00 2.97 407.27 419.9 0.00 -- --
05/10/2022 03:00 2.97 407.27 419.9 0.00 -- --
05/10/2022 02:00 2.96 407.27 416.6 0.00 -- --
05/10/2022 01:00 2.95 407.27 413.3 0.00 -- --
05/10/2022 00:00 2.95 407.26 413.3 0.00 0.00 --
05/09/2022 23:00 2.94 407.26 410.0 0.00 -- --
05/09/2022 22:00 2.92 407.26 403.5 0.00 -- --
05/09/2022 21:00 2.90 407.26 397.0 0.00 -- --
05/09/2022 20:00 2.89 407.24 393.7 0.00 -- --
05/09/2022 19:00 2.89 407.24 393.7 0.00 -- --
05/09/2022 18:00 2.89 407.22 393.7 0.00 -- --
05/09/2022 17:00 2.89 407.24 393.7 0.00 -- --
05/09/2022 16:00 2.88 407.23 390.5 0.00 -- --
05/09/2022 15:00 2.88 407.22 390.5 0.00 -- --
05/09/2022 14:00 2.88 407.21 390.5 0.00 -- --
05/09/2022 13:00 2.89 407.21 393.7 0.00 -- --
05/09/2022 12:00 2.90 407.23 397.0 0.00 -- --
05/09/2022 11:00 2.91 407.20 400.2 0.00 -- --
05/09/2022 10:00 2.92 407.22 403.5 0.00 -- --
05/09/2022 09:00 3.20 407.21 494.0 0.00 -- --
05/09/2022 08:00 3.75 407.16 695.8 0.00 -- --
05/09/2022 07:00 3.75 407.16 695.8 0.00 -- --
05/09/2022 06:00 3.75 407.17 695.8 0.00 -- --
05/09/2022 05:00 3.74 407.17 691.9 0.00 -- --
05/09/2022 04:00 3.74 407.17 691.9 0.00 -- --
05/09/2022 03:00 3.74 407.17 691.9 0.00 -- --
05/09/2022 02:00 3.74 407.17 691.9 0.00 -- --
05/09/2022 01:00 3.74 407.18 691.9 0.00 -- --
05/09/2022 00:00 3.74 407.18 691.9 0.00 0.00 --
05/08/2022 23:00 3.73 407.18 687.9 0.00 -- --
05/08/2022 22:00 3.73 407.18 687.9 0.00 -- --
05/08/2022 21:00 3.73 407.18 687.9 0.00 -- --
05/08/2022 20:00 3.72 407.18 683.9 0.00 -- --
05/08/2022 19:00 3.72 407.18 683.9 0.00 -- --
05/08/2022 18:00 3.73 407.18 687.9 0.00 -- --
05/08/2022 17:00 3.73 407.18 687.9 0.00 -- --
05/08/2022 16:00 3.73 407.19 687.9 0.00 -- --
05/08/2022 15:00 3.74 407.18 691.9 0.00 -- --
05/08/2022 14:00 3.74 407.19 691.9 0.00 -- --
05/08/2022 13:00 3.75 407.19 695.8 0.00 -- --
05/08/2022 12:00 3.76 407.19 699.9 0.00 -- --
05/08/2022 11:00 3.77 407.19 703.9 0.00 -- --
05/08/2022 10:00 3.78 407.19 707.9 0.00 -- --
05/08/2022 09:00 3.79 407.20 711.9 0.00 -- --
05/08/2022 08:00 3.79 407.20 711.9 0.00 -- --
05/08/2022 07:00 3.79 407.20 711.9 0.00 -- --
05/08/2022 06:00 3.79 407.20 711.9 0.00 -- --
05/08/2022 05:00 3.79 407.20 711.9 0.00 -- --
05/08/2022 04:00 3.79 407.21 711.9 0.00 -- --
05/08/2022 03:00 3.79 407.21 711.9 0.00 -- --
05/08/2022 02:00 3.79 407.21 711.9 0.00 -- --
05/08/2022 01:00 3.78 407.21 707.9 0.00 -- --
05/08/2022 00:00 3.78 407.21 707.9 0.00 0.00 --
05/07/2022 23:00 3.78 407.21 707.9 0.00 -- --
05/07/2022 22:00 3.77 407.21 703.9 0.00 -- --
05/07/2022 21:00 3.77 407.21 703.9 0.00 -- --
05/07/2022 20:00 3.76 407.21 699.9 0.00 -- --
05/07/2022 19:00 3.76 407.20 699.9 0.00 -- --
05/07/2022 18:00 3.75 407.19 695.8 0.00 -- --
05/07/2022 17:00 3.75 407.20 695.8 0.00 -- --
05/07/2022 16:00 3.76 407.20 699.9 0.00 -- --
05/07/2022 15:00 3.76 407.19 699.9 0.00 -- --
05/07/2022 14:00 3.76 407.20 699.9 0.00 -- --
05/07/2022 13:00 3.77 407.19 703.9 0.00 -- --
05/07/2022 12:00 3.77 407.19 703.9 0.00 -- --
05/07/2022 11:00 3.77 407.20 703.9 0.00 -- --
05/07/2022 10:00 3.78 407.21 707.9 0.00 -- --
05/07/2022 09:00 3.79 407.19 711.9 0.00 -- --
05/07/2022 08:00 3.79 407.22 711.9 0.00 -- --
05/07/2022 07:00 3.79 407.22 711.9 0.00 -- --
05/07/2022 06:00 3.79 407.22 711.9 0.00 -- --
05/07/2022 05:00 3.79 407.21 711.9 0.00 -- --
05/07/2022 04:00 3.79 407.22 711.9 0.00 -- --
05/07/2022 03:00 3.78 407.22 707.9 0.00 -- --
05/07/2022 02:00 3.78 407.22 707.9 0.00 -- --
05/07/2022 01:00 3.77 407.22 703.9 0.00 -- --
05/07/2022 00:00 3.77 407.22 703.9 0.00 0.00 --
05/06/2022 23:00 3.76 407.21 699.9 0.00 -- --
05/06/2022 22:00 3.75 407.21 695.8 0.00 -- --
05/06/2022 21:00 3.75 407.21 695.8 0.00 -- --
05/06/2022 20:00 3.76 407.21 699.9 0.00 -- --
05/06/2022 19:00 3.76 407.22 699.9 0.00 -- --
05/06/2022 18:00 3.76 407.22 699.9 0.00 -- --
05/06/2022 17:00 3.77 407.22 703.9 0.00 -- --
05/06/2022 16:00 3.77 407.22 703.9 0.00 -- --
05/06/2022 15:00 3.77 407.22 703.9 0.00 -- --
05/06/2022 14:00 3.75 407.21 695.8 0.00 -- --
05/06/2022 13:00 3.76 407.20 699.9 0.00 -- --
05/06/2022 12:00 3.76 407.20 699.9 0.00 -- --
05/06/2022 11:00 3.77 407.19 703.9 0.00 -- --
05/06/2022 10:00 3.76 407.19 699.9 0.00 -- --
05/06/2022 09:00 3.76 407.19 699.9 0.00 -- --
05/06/2022 08:00 3.76 407.19 699.9 0.00 -- --
05/06/2022 07:00 3.75 407.18 695.8 0.00 -- --
05/06/2022 06:00 3.74 407.18 691.9 0.00 -- --
05/06/2022 05:00 3.73 407.17 687.9 0.00 -- --
05/06/2022 04:00 3.73 407.17 687.9 0.00 -- --
05/06/2022 03:00 3.72 407.16 683.9 0.00 -- --
05/06/2022 02:00 3.71 407.16 679.9 0.00 -- --
05/06/2022 01:00 3.70 407.15 676.0 0.00 -- --
05/06/2022 00:00 3.69 407.15 672.1 0.00 0.00 --
05/05/2022 23:00 3.68 407.15 668.3 0.00 -- --
05/05/2022 22:00 3.67 407.15 664.5 0.00 -- --
05/05/2022 21:00 3.66 407.14 660.7 0.00 -- --
05/05/2022 20:00 3.65 407.14 656.9 0.00 -- --
05/05/2022 19:00 3.65 407.13 656.9 0.00 -- --
05/05/2022 18:00 3.64 407.14 653.1 0.00 -- --
05/05/2022 17:00 3.64 407.13 653.1 0.00 -- --
05/05/2022 16:00 3.65 407.13 656.9 0.00 -- --
05/05/2022 15:00 3.64 407.10 653.1 0.00 -- --
05/05/2022 14:00 3.63 407.11 649.3 0.00 -- --
05/05/2022 13:00 3.63 407.10 649.3 0.00 -- --
05/05/2022 12:00 3.62 407.10 645.5 0.00 -- --
05/05/2022 11:00 3.61 407.09 641.7 0.00 -- --
05/05/2022 10:00 3.61 407.07 641.7 0.00 -- --
05/05/2022 09:00 3.61 407.06 641.7 0.00 -- --
05/05/2022 08:00 3.59 407.06 634.1 0.00 -- --
05/05/2022 07:00 3.59 407.06 634.1 0.00 -- --
05/05/2022 06:00 3.58 407.04 630.3 0.00 -- --
05/05/2022 05:00 3.57 407.05 626.5 0.00 -- --
05/05/2022 04:00 3.57 407.04 626.5 0.00 -- --
05/05/2022 03:00 3.55 407.03 618.8 0.00 -- --
05/05/2022 02:00 3.55 407.03 618.8 0.00 -- --
05/05/2022 01:00 3.54 407.02 615.1 0.00 -- --
05/05/2022 00:00 3.53 407.02 611.3 0.00 0.00 --
05/04/2022 23:00 3.53 407.01 611.3 0.01 -- --
05/04/2022 22:00 3.52 407.01 607.5 0.01 -- --
05/04/2022 21:00 3.51 407.00 603.7 0.03 -- --
05/04/2022 20:00 3.51 407.00 603.7 0.04 -- --
05/04/2022 19:00 3.50 406.99 600.0 0.00 -- --
05/04/2022 18:00 3.50 406.99 600.0 0.02 -- --
05/04/2022 17:00 3.50 406.99 600.0 0.08 -- --
05/04/2022 16:00 3.50 406.99 600.0 0.00 -- --
05/04/2022 15:00 3.50 406.99 600.0 0.01 -- --
05/04/2022 14:00 3.50 406.99 600.0 0.00 -- --
05/04/2022 13:00 3.50 406.99 600.0 0.01 -- --
05/04/2022 12:00 3.50 406.99 600.0 0.01 -- --
05/04/2022 11:00 3.16 406.99 481.1 0.04 -- --
05/04/2022 10:00 2.44 407.03 263.5 0.09 -- --
05/04/2022 09:00 2.43 407.01 261.1 0.13 -- --
05/04/2022 08:00 2.42 407.01 258.7 0.06 -- --
05/04/2022 07:00 2.41 407.01 256.3 0.03 -- --
05/04/2022 06:00 2.39 407.00 251.6 0.00 -- --
05/04/2022 05:00 2.38 406.99 249.3 0.00 -- --
05/04/2022 04:00 2.38 406.99 249.3 0.00 -- --
05/04/2022 03:00 2.36 406.98 244.7 0.00 -- --
05/04/2022 02:00 2.34 406.97 240.1 0.02 -- --
05/04/2022 01:00 2.33 406.97 237.8 0.05 -- --
05/04/2022 00:00 2.31 406.96 233.2 0.01 0.64 --
05/03/2022 23:00 2.29 406.95 228.9 0.00 -- --
05/03/2022 22:00 2.29 406.94 228.9 0.00 -- --
05/03/2022 21:00 2.28 406.94 226.7 0.00 -- --
05/03/2022 20:00 2.27 406.94 224.6 0.00 -- --
05/03/2022 19:00 2.26 406.93 222.5 0.00 -- --
05/03/2022 18:00 2.25 406.92 220.4 0.00 -- --
05/03/2022 17:00 2.25 406.92 220.4 0.00 -- --
05/03/2022 16:00 2.25 406.91 220.4 0.00 -- --
05/03/2022 15:00 2.24 406.91 218.3 0.00 -- --
05/03/2022 14:00 2.23 406.91 216.2 0.00 -- --
05/03/2022 13:00 2.23 406.89 216.2 0.00 -- --
05/03/2022 12:00 2.21 406.89 212.1 0.00 -- --
05/03/2022 11:00 2.06 406.87 181.3 0.00 -- --
05/03/2022 10:00 2.49 406.87 275.5 0.00 -- --
05/03/2022 09:00 2.49 406.85 275.5 0.00 -- --
05/03/2022 08:00 2.48 406.84 273.1 0.00 -- --
05/03/2022 07:00 2.47 406.84 270.7 0.00 -- --
05/03/2022 06:00 2.46 406.84 268.3 0.00 -- --
05/03/2022 05:00 2.45 406.83 265.9 0.01 -- --
05/03/2022 04:00 2.44 406.82 263.5 0.00 -- --
05/03/2022 03:00 2.43 406.82 261.1 0.01 -- --
05/03/2022 02:00 2.42 406.81 258.7 0.01 -- --
05/03/2022 01:00 2.41 406.81 256.3 0.00 -- --
05/03/2022 00:00 2.39 406.80 251.6 0.01 0.04 --
05/02/2022 23:00 2.38 406.80 249.3 0.02 -- --
05/02/2022 22:00 2.36 406.79 244.7 0.01 -- --
05/02/2022 21:00 2.34 406.78 240.1 0.01 -- --
05/02/2022 20:00 2.32 406.77 235.5 0.00 -- --
05/02/2022 19:00 -- -- -- -- -- --
05/02/2022 18:00 -- -- -- -- -- --
05/02/2022 17:00 -- -- -- -- -- --
05/02/2022 16:00 -- -- -- -- -- --
05/02/2022 15:00 -- -- -- -- -- --
05/02/2022 14:00 -- -- -- -- -- --
05/02/2022 13:00 -- -- -- -- -- --
05/02/2022 12:00 -- -- -- -- -- --
05/02/2022 11:00 -- -- -- -- -- --
05/02/2022 10:00 -- -- -- -- -- --
05/02/2022 09:00 -- -- -- -- -- --
05/02/2022 08:00 -- -- -- -- -- --
05/02/2022 07:00 -- -- -- -- -- --
05/02/2022 06:00 -- -- -- -- -- --
05/02/2022 05:00 -- -- -- -- -- --
05/02/2022 04:00 -- -- -- -- -- --
05/02/2022 03:00 -- -- -- -- -- --
05/02/2022 02:00 -- -- -- -- -- --
05/02/2022 01:00 -- -- -- -- -- --
05/02/2022 00:00 -- -- -- -- 0.05 --